Time;durP1;ratioP1;P1;durP2;ratioP2;P2;SDS_P1;SDS_P2;PMS_P1;PMS_P2;Temp;Humidity;BMP_temperature;BMP_pressure;BME280_temperature;BME280_humidity;BME280_pressure;Samples;Min_cycle;Max_cycle;Signal;HPM_P1;HPM_P2
2023/08/29 00:00:49;;;;;;;;;;;;;;;22.05;85.39;94438.91;5134895;27;995;-55
2023/08/29 00:03:15;;;;;;;;;;;;;;;22.28;84.46;94442.53;5134764;27;1009;-55
2023/08/29 00:05:41;;;;;;;;;;;;;;;22.20;84.85;94450.00;5127138;27;1917;-55
2023/08/29 00:08:08;;;;;;;;;;;;;;;21.99;86.05;94440.72;5113783;28;1151;-55
2023/08/29 00:10:34;;;;;;;;;;;;;;;21.99;86.36;94442.63;5113884;28;1103;-55
2023/08/29 00:13:00;;;;;;;;;;;;;;;22.08;85.90;94445.75;5125127;27;3111;-55
2023/08/29 00:15:26;;;;;;;;;;;;;;;22.07;85.55;94446.84;5134653;27;956;-55
2023/08/29 00:17:52;;;;;;;;;;;;;;;21.89;85.96;94446.00;5129826;27;2487;-55
2023/08/29 00:20:18;;;;;;;;;;;;;;;21.69;87.48;94446.53;5134323;28;1052;-55
2023/08/29 00:22:44;;;;;;;;;;;;;;;21.88;86.49;94438.94;5114718;28;1070;-55
2023/08/29 00:25:09;;;;;;;;;;;;;;;22.03;85.87;94444.59;5113669;28;1905;-55
2023/08/29 00:27:35;;;;;;;;;;;;;;;22.00;85.49;94447.00;5114043;28;995;-55
2023/08/29 00:30:01;;;;;;;;;;;;;;;21.78;87.07;94439.59;5114043;28;1019;-55
2023/08/29 00:32:27;;;;;;;;;;;;;;;21.72;88.34;94443.31;5114003;28;978;-55
2023/08/29 00:34:53;;;;;;;;;;;;;;;21.71;87.47;94446.28;5114044;28;1048;-55
2023/08/29 00:37:19;;;;;;;;;;;;;;;21.52;88.13;94440.28;5113685;28;1047;-55
2023/08/29 00:39:45;;;;;;;;;;;;;;;21.51;88.45;94441.31;5113756;28;1067;-55
2023/08/29 00:42:11;;;;;;;;;;;;;;;21.63;87.34;94439.38;5113624;28;1053;-55
2023/08/29 00:44:38;;;;;;;;;;;;;;;21.51;87.90;94447.56;5113685;28;1136;-55
2023/08/29 00:47:04;;;;;;;;;;;;;;;21.59;87.50;94433.59;5113731;28;1910;-55
2023/08/29 00:49:30;;;;;;;;;;;;;;;21.57;87.79;94433.00;5113836;28;1220;-55
2023/08/29 00:51:56;;;;;;;;;;;;;;;21.55;88.15;94432.44;5113669;28;1036;-55
2023/08/29 00:54:22;;;;;;;;;;;;;;;21.36;89.24;94425.53;5113467;28;1191;-55
2023/08/29 00:56:48;;;;;;;;;;;;;;;21.23;89.62;94438.41;5113767;28;990;-55
2023/08/29 00:59:14;;;;;;;;;;;;;;;21.17;89.90;94431.22;5115876;28;982;-55
2023/08/29 01:01:40;;;;;;;;;;;;;;;21.35;88.66;94432.88;5117508;28;1020;-55
2023/08/29 01:04:08;;;;;;;;;;;;;;;21.33;88.86;94418.72;5117598;28;988;-55
2023/08/29 01:06:35;;;;;;;;;;;;;;;21.30;88.71;94419.19;5132244;27;1909;-55
2023/08/29 01:09:01;;;;;;;;;;;;;;;21.40;88.04;94419.38;5137923;27;956;-55
2023/08/29 01:11:30;;;;;;;;;;;;;;;21.56;87.07;94425.91;5137761;27;1060;-55
2023/08/29 01:14:02;;;;;;;;;;;;;;;21.71;86.26;94422.63;5138106;27;1044;-55
2023/08/29 01:16:32;;;;;;;;;;;;;;;21.53;87.04;94411.97;5137718;27;1055;-54
2023/08/29 01:18:59;;;;;;;;;;;;;;;21.54;87.35;94408.22;5119592;27;1028;-54
2023/08/29 01:21:28;;;;;;;;;;;;;;;21.48;87.64;94411.91;5137649;27;1192;-55
2023/08/29 01:24:03;;;;;;;;;;;;;;;21.54;87.20;94410.94;5137631;27;1053;-55
2023/08/29 01:26:29;;;;;;;;;;;;;;;21.50;87.27;94412.50;5137662;27;1909;-54
2023/08/29 01:28:56;;;;;;;;;;;;;;;21.49;87.48;94398.06;5137534;27;1087;-55
2023/08/29 01:31:23;;;;;;;;;;;;;;;21.38;87.76;94397.06;5141755;27;2431;-54
2023/08/29 01:33:49;;;;;;;;;;;;;;;21.50;86.60;94397.00;5158295;27;1059;-55
2023/08/29 01:36:15;;;;;;;;;;;;;;;21.62;85.82;94397.72;5157956;27;1059;-55
2023/08/29 01:38:41;;;;;;;;;;;;;;;21.56;86.32;94400.63;5158344;27;1071;-55
2023/08/29 01:41:07;;;;;;;;;;;;;;;21.37;87.96;94402.72;5158190;27;1014;-55
2023/08/29 01:43:33;;;;;;;;;;;;;;;21.29;88.27;94395.81;5158128;27;960;-55
2023/08/29 01:45:59;;;;;;;;;;;;;;;21.14;89.23;94401.81;5157998;27;1998;-55
2023/08/29 01:48:26;;;;;;;;;;;;;;;21.18;89.53;94394.81;5139505;27;1032;-54
2023/08/29 01:50:52;;;;;;;;;;;;;;;21.24;89.01;94393.00;5157892;27;1018;-55
2023/08/29 01:53:18;;;;;;;;;;;;;;;21.45;87.79;94399.63;5157747;27;968;-54
2023/08/29 01:55:44;;;;;;;;;;;;;;;21.51;87.35;94414.94;5157772;27;1044;-55
2023/08/29 01:58:10;;;;;;;;;;;;;;;21.34;88.03;94412.22;5157803;27;987;-55
2023/08/29 02:00:37;;;;;;;;;;;;;;;21.15;88.98;94422.50;5158018;27;1211;-55
2023/08/29 02:03:03;;;;;;;;;;;;;;;20.91;89.62;94418.25;5157902;27;984;-55
2023/08/29 02:05:29;;;;;;;;;;;;;;;21.22;87.03;94411.44;5157166;27;1984;-55
2023/08/29 02:07:55;;;;;;;;;;;;;;;21.34;86.34;94406.78;5157758;27;960;-55
2023/08/29 02:10:21;;;;;;;;;;;;;;;21.18;87.58;94411.13;5138235;27;1032;-55
2023/08/29 02:12:47;;;;;;;;;;;;;;;21.12;88.04;94406.66;5157417;27;1071;-55
2023/08/29 02:15:13;;;;;;;;;;;;;;;20.96;89.74;94426.47;5157266;27;1027;-55
2023/08/29 02:17:39;;;;;;;;;;;;;;;20.70;90.76;94425.16;5157493;27;1032;-55
2023/08/29 02:20:06;;;;;;;;;;;;;;;20.89;88.37;94418.47;5157625;27;1090;-55
2023/08/29 02:22:33;;;;;;;;;;;;;;;20.98;87.89;94417.03;5138931;27;1228;-54
2023/08/29 02:25:00;;;;;;;;;;;;;;;21.13;87.24;94413.72;5136439;27;1913;-55
2023/08/29 02:27:27;;;;;;;;;;;;;;;21.13;87.12;94416.44;5136372;27;1115;-55
2023/08/29 02:29:52;;;;;;;;;;;;;;;20.90;88.00;94411.16;5136698;27;973;-54
2023/08/29 02:32:20;;;;;;;;;;;;;;;20.73;89.76;94408.38;5136432;27;999;-54
2023/08/29 02:34:46;;;;;;;;;;;;;;;20.75;89.03;94406.25;5136199;27;1119;-55
2023/08/29 02:37:12;;;;;;;;;;;;;;;20.89;87.94;94399.47;5136204;27;1044;-54
2023/08/29 02:39:38;;;;;;;;;;;;;;;20.91;87.84;94405.47;5140207;27;2503;-54
2023/08/29 02:42:04;;;;;;;;;;;;;;;20.88;88.49;94396.97;5157049;27;1114;-54
2023/08/29 02:44:30;;;;;;;;;;;;;;;20.49;90.75;94397.59;5156792;27;1046;-55
2023/08/29 02:46:56;;;;;;;;;;;;;;;20.46;91.29;94393.44;5156724;27;2016;-55
2023/08/29 02:49:22;;;;;;;;;;;;;;;20.36;91.99;94395.16;5156898;27;1047;-55
2023/08/29 02:51:47;;;;;;;;;;;;;;;20.34;92.34;94395.38;5156783;27;1139;-55
2023/08/29 02:54:13;;;;;;;;;;;;;;;20.41;91.87;94393.38;5156725;27;1007;-55
2023/08/29 02:56:39;;;;;;;;;;;;;;;20.23;91.97;94382.66;5156898;27;1048;-55
2023/08/29 02:59:05;;;;;;;;;;;;;;;20.12;91.97;94391.66;5156784;27;1007;-55
2023/08/29 03:01:31;;;;;;;;;;;;;;;20.31;90.50;94386.91;5156646;27;963;-55
2023/08/29 03:03:57;;;;;;;;;;;;;;;20.27;91.01;94391.97;5156704;27;1064;-56
2023/08/29 03:06:23;;;;;;;;;;;;;;;20.08;91.71;94389.41;5155923;27;1914;-54
2023/08/29 03:08:49;;;;;;;;;;;;;;;20.15;91.88;94383.06;5156561;27;1048;-55
2023/08/29 03:11:15;;;;;;;;;;;;;;;20.07;92.20;94393.19;5156372;27;961;-55
2023/08/29 03:13:41;;;;;;;;;;;;;;;20.07;92.67;94378.78;5156140;27;1028;-55
2023/08/29 03:16:11;;;;;;;;;;;;;;;20.09;92.59;94395.69;5156023;27;1056;-55
2023/08/29 03:18:37;;;;;;;;;;;;;;;20.17;92.04;94400.72;5156429;27;833;-55
2023/08/29 03:21:05;;;;;;;;;;;;;;;20.09;92.82;94399.22;5150709;27;1165;-54
2023/08/29 03:23:31;;;;;;;;;;;;;;;20.13;91.61;94396.84;5134428;27;1040;-54
2023/08/29 03:26:04;;;;;;;;;;;;;;;19.93;93.08;94394.50;5135363;27;1901;-54
2023/08/29 03:28:30;;;;;;;;;;;;;;;19.92;93.19;94386.59;5135070;27;1559;-54
2023/08/29 03:30:55;;;;;;;;;;;;;;;19.95;92.61;94386.13;5135220;27;949;-54
2023/08/29 03:33:21;;;;;;;;;;;;;;;20.05;92.24;94383.63;5135263;27;952;-53
2023/08/29 03:35:57;;;;;;;;;;;;;;;20.31;90.62;94390.44;5137772;27;2522;-54
2023/08/29 03:38:23;;;;;;;;;;;;;;;20.25;91.45;94386.78;5155813;27;961;-53
2023/08/29 03:40:56;;;;;;;;;;;;;;;20.05;91.76;94386.34;5155758;27;960;-53
2023/08/29 03:43:22;;;;;;;;;;;;;;;20.01;92.02;94386.00;5155880;27;1039;-53
2023/08/29 03:45:54;;;;;;;;;;;;;;;20.14;91.03;94387.63;5155542;27;1909;-53
2023/08/29 03:48:20;;;;;;;;;;;;;;;20.25;89.69;94394.09;5155594;27;1016;-53
2023/08/29 03:50:48;;;;;;;;;;;;;;;20.11;91.26;94400.84;5155456;27;1032;-54
2023/08/29 03:53:14;;;;;;;;;;;;;;;20.15;91.72;94404.75;5155320;27;1039;-54
2023/08/29 03:55:40;;;;;;;;;;;;;;;20.13;91.46;94401.44;5155388;27;1078;-54
2023/08/29 03:58:06;;;;;;;;;;;;;;;20.48;88.73;94402.16;5155344;27;1054;-54
2023/08/29 04:00:32;;;;;;;;;;;;;;;20.29;90.38;94397.97;5155228;27;983;-54
2023/08/29 04:02:59;;;;;;;;;;;;;;;20.03;91.42;94399.31;5155272;27;1055;-54
2023/08/29 04:05:25;;;;;;;;;;;;;;;20.03;91.78;94396.63;5155051;27;1906;-55
2023/08/29 04:07:51;;;;;;;;;;;;;;;20.26;90.70;94409.31;5155469;27;1068;-54
2023/08/29 04:10:17;;;;;;;;;;;;;;;20.36;90.49;94414.16;5155154;27;1075;-54
2023/08/29 04:12:43;;;;;;;;;;;;;;;20.19;92.47;94404.03;5155498;27;987;-54
2023/08/29 04:15:11;;;;;;;;;;;;;;;19.89;92.23;94404.19;5155209;27;996;-53
2023/08/29 04:17:37;;;;;;;;;;;;;;;19.85;92.94;94403.84;5155077;27;969;-53
2023/08/29 04:20:08;;;;;;;;;;;;;;;20.07;91.70;94400.50;5155281;27;972;-54
2023/08/29 04:22:38;;;;;;;;;;;;;;;20.24;91.40;94401.44;5136797;27;1235;-53
2023/08/29 04:25:06;;;;;;;;;;;;;;;20.27;91.93;94395.50;5133550;27;2928;-54
2023/08/29 04:27:33;;;;;;;;;;;;;;;20.34;91.72;94406.25;5134263;28;1950;-54
2023/08/29 04:29:58;;;;;;;;;;;;;;;20.53;90.46;94411.50;5134526;28;1052;-53
2023/08/29 04:32:24;;;;;;;;;;;;;;;20.74;90.13;94410.88;5134491;28;961;-54
2023/08/29 04:34:50;;;;;;;;;;;;;;;20.72;88.36;94406.75;5138003;27;995;-54
2023/08/29 04:37:16;;;;;;;;;;;;;;;20.79;89.08;94408.25;5138547;27;1091;-54
2023/08/29 04:39:44;;;;;;;;;;;;;;;20.54;89.48;94405.00;5138642;27;1039;-54
2023/08/29 04:42:10;;;;;;;;;;;;;;;20.60;88.50;94396.75;5138462;27;1157;-54
2023/08/29 04:44:36;;;;;;;;;;;;;;;20.63;88.15;94390.00;5138397;27;1083;-54
2023/08/29 04:47:03;;;;;;;;;;;;;;;20.92;87.14;94390.00;5138336;27;1976;-54
2023/08/29 04:49:29;;;;;;;;;;;;;;;21.24;85.28;94399.25;5138576;27;961;-53
2023/08/29 04:51:55;;;;;;;;;;;;;;;21.63;84.22;94395.84;5138268;27;1095;-54
2023/08/29 04:54:22;;;;;;;;;;;;;;;21.77;84.24;94394.41;5138190;27;1040;-53
2023/08/29 04:56:47;;;;;;;;;;;;;;;21.91;82.87;94392.19;5138527;27;1067;-53
2023/08/29 04:59:13;;;;;;;;;;;;;;;22.00;82.57;94398.81;5138323;27;1007;-53
2023/08/29 05:01:39;;;;;;;;;;;;;;;21.92;83.69;94395.72;5138415;27;977;-53
2023/08/29 05:04:05;;;;;;;;;;;;;;;21.90;82.83;94395.97;5138021;27;1091;-54
2023/08/29 05:06:31;;;;;;;;;;;;;;;21.67;83.60;94385.28;5137813;27;1914;-54
2023/08/29 05:08:57;;;;;;;;;;;;;;;21.61;85.26;94382.50;5138155;27;1252;-53
2023/08/29 05:11:23;;;;;;;;;;;;;;;21.83;86.91;94379.84;5137924;27;972;-54
2023/08/29 05:13:49;;;;;;;;;;;;;;;22.13;86.53;94378.59;5137828;27;1044;-54
2023/08/29 05:16:15;;;;;;;;;;;;;;;22.47;84.15;94378.50;5137705;27;1040;-54
2023/08/29 05:18:41;;;;;;;;;;;;;;;22.86;82.39;94391.19;5137766;27;1289;-54
2023/08/29 05:21:07;;;;;;;;;;;;;;;23.07;81.45;94398.53;5131947;27;1232;-53
2023/08/29 05:23:33;;;;;;;;;;;;;;;23.26;80.87;94390.81;5117199;28;975;-54
2023/08/29 05:25:59;;;;;;;;;;;;;;;23.45;76.75;94404.88;5117274;28;1906;-54
2023/08/29 05:28:25;;;;;;;;;;;;;;;23.32;79.38;94397.13;5117159;28;1126;-54
2023/08/29 05:30:51;;;;;;;;;;;;;;;23.18;80.70;94386.66;5117313;28;976;-54
2023/08/29 05:33:17;;;;;;;;;;;;;;;22.89;81.85;94375.16;5117159;28;1039;-54
2023/08/29 05:35:43;;;;;;;;;;;;;;;22.72;81.87;94369.78;5117191;28;950;-54
2023/08/29 05:38:09;;;;;;;;;;;;;;;22.97;80.87;94369.25;5117019;28;1303;-53
2023/08/29 05:40:35;;;;;;;;;;;;;;;23.31;79.27;94365.47;5116915;28;981;-54
2023/08/29 05:43:01;;;;;;;;;;;;;;;23.53;78.96;94360.75;5124758;27;3034;-54
2023/08/29 05:45:27;;;;;;;;;;;;;;;23.84;77.18;94374.63;5136275;27;1909;-54
2023/08/29 05:47:53;;;;;;;;;;;;;;;24.00;75.84;94374.72;5137389;27;1044;-54
2023/08/29 05:50:19;;;;;;;;;;;;;;;24.11;76.39;94374.53;5141303;27;2424;-54
2023/08/29 05:52:45;;;;;;;;;;;;;;;24.02;74.29;94367.94;5157863;27;1055;-54
2023/08/29 05:55:11;;;;;;;;;;;;;;;24.23;75.14;94360.69;5157713;27;1039;-54
2023/08/29 05:57:37;;;;;;;;;;;;;;;24.52;72.95;94369.28;5158055;27;1071;-54
2023/08/29 06:00:07;;;;;;;;;;;;;;;24.79;70.80;94373.75;5157993;27;1043;-54
2023/08/29 06:02:34;;;;;;;;;;;;;;;24.93;71.93;94366.69;5157876;27;957;-54
2023/08/29 06:04:59;;;;;;;;;;;;;;;24.91;69.82;94360.66;5157501;27;1228;-55
2023/08/29 06:07:25;;;;;;;;;;;;;;;24.80;71.42;94372.66;5157805;27;1917;-55
2023/08/29 06:09:51;;;;;;;;;;;;;;;24.47;69.69;94371.16;5157556;27;1043;-54
2023/08/29 06:12:17;;;;;;;;;;;;;;;24.23;71.16;94371.59;5157338;27;1106;-54
2023/08/29 06:14:43;;;;;;;;;;;;;;;24.26;72.19;94370.22;5157419;27;1047;-54
2023/08/29 06:17:09;;;;;;;;;;;;;;;24.46;69.89;94361.31;5157371;27;1039;-54
2023/08/29 06:19:35;;;;;;;;;;;;;;;24.77;69.73;94366.91;5157392;27;1071;-54
2023/08/29 06:22:01;;;;;;;;;;;;;;;24.71;69.35;94361.44;5139294;27;2491;-53
2023/08/29 06:24:27;;;;;;;;;;;;;;;24.91;67.75;94359.84;5124543;27;2526;-54
2023/08/29 06:26:54;;;;;;;;;;;;;;;24.87;68.98;94356.84;5115859;28;1913;-54
2023/08/29 06:29:20;;;;;;;;;;;;;;;25.26;67.03;94356.38;5116036;28;962;-54
2023/08/29 06:31:46;;;;;;;;;;;;;;;25.61;66.40;94364.84;5116127;28;1029;-54
2023/08/29 06:34:12;;;;;;;;;;;;;;;25.75;66.64;94363.19;5115734;28;1095;-54
2023/08/29 06:36:38;;;;;;;;;;;;;;;26.04;64.86;94368.13;5116077;28;1011;-54
2023/08/29 06:39:04;;;;;;;;;;;;;;;26.24;62.33;94370.00;5115670;28;1048;-54
2023/08/29 06:41:30;;;;;;;;;;;;;;;26.32;61.10;94365.84;5115618;28;976;-55
2023/08/29 06:43:56;;;;;;;;;;;;;;;26.52;60.38;94367.69;5115863;28;1026;-55
2023/08/29 06:46:23;;;;;;;;;;;;;;;26.55;61.33;94364.41;5115626;28;1914;-55
2023/08/29 06:48:48;;;;;;;;;;;;;;;26.71;61.04;94365.97;5115692;28;956;-55
2023/08/29 06:51:14;;;;;;;;;;;;;;;26.83;61.30;94368.41;5115500;28;1048;-55
2023/08/29 06:53:40;;;;;;;;;;;;;;;26.98;60.81;94371.06;5115536;28;999;-54
2023/08/29 06:56:06;;;;;;;;;;;;;;;27.06;62.27;94364.97;5115380;28;957;-55
2023/08/29 06:58:32;;;;;;;;;;;;;;;27.15;61.07;94364.38;5115572;28;1233;-54
2023/08/29 07:00:58;;;;;;;;;;;;;;;27.22;61.12;94362.13;5115298;28;1087;-55
2023/08/29 07:03:24;;;;;;;;;;;;;;;27.31;59.60;94370.63;5117298;27;2937;-55
2023/08/29 07:05:50;;;;;;;;;;;;;;;27.35;59.74;94363.44;5115087;28;1917;-55
2023/08/29 07:08:16;;;;;;;;;;;;;;;27.31;58.47;94363.19;5115037;28;1872;-55
2023/08/29 07:10:42;;;;;;;;;;;;;;;27.39;58.41;94365.31;5115198;28;965;-55
2023/08/29 07:13:08;;;;;;;;;;;;;;;27.47;59.53;94366.66;5115062;28;1043;-54
2023/08/29 07:15:34;;;;;;;;;;;;;;;27.44;61.23;94373.53;5115228;28;1207;-55
2023/08/29 07:18:00;;;;;;;;;;;;;;;27.62;59.70;94366.53;5114910;28;1056;-55
2023/08/29 07:20:26;;;;;;;;;;;;;;;27.66;58.32;94364.03;5114873;28;1327;-55
2023/08/29 07:22:53;;;;;;;;;;;;;;;27.83;57.56;94369.94;5134512;27;2453;-55
2023/08/29 07:25:19;;;;;;;;;;;;;;;27.98;57.00;94373.66;5116035;27;2896;-55
2023/08/29 07:27:45;;;;;;;;;;;;;;;27.91;59.04;94375.94;5134917;27;2930;-55
2023/08/29 07:30:14;;;;;;;;;;;;;;;27.62;56.93;94366.53;5135392;27;1011;-55
2023/08/29 07:32:41;;;;;;;;;;;;;;;27.31;62.08;94367.88;5135354;27;964;-55
2023/08/29 07:35:08;;;;;;;;;;;;;;;27.23;59.54;94369.28;5135428;27;1099;-55
2023/08/29 07:37:34;;;;;;;;;;;;;;;27.33;59.15;94360.19;5135339;27;1039;-55
2023/08/29 07:40:00;;;;;;;;;;;;;;;27.32;60.67;94359.38;5120174;27;2543;-55
2023/08/29 07:42:26;;;;;;;;;;;;;;;27.36;60.65;94352.19;5114612;28;1080;-55
2023/08/29 07:44:52;;;;;;;;;;;;;;;27.51;59.77;94342.19;5114654;28;1052;-55
2023/08/29 07:47:17;;;;;;;;;;;;;;;27.63;58.37;94346.19;5114268;28;1906;-55
2023/08/29 07:49:43;;;;;;;;;;;;;;;27.69;57.41;94343.41;5114307;28;1870;-55
2023/08/29 07:52:09;;;;;;;;;;;;;;;27.44;61.07;94337.84;5114317;28;1103;-55
2023/08/29 07:54:35;;;;;;;;;;;;;;;27.32;62.28;94342.91;5114348;28;1043;-55
2023/08/29 07:57:01;;;;;;;;;;;;;;;27.22;60.44;94342.94;5114288;28;1352;-54
2023/08/29 07:59:27;;;;;;;;;;;;;;;27.22;60.69;94332.78;5114479;28;1001;-55
2023/08/29 08:01:54;;;;;;;;;;;;;;;27.17;57.82;94337.50;5114250;28;913;-55
2023/08/29 08:04:19;;;;;;;;;;;;;;;27.06;60.55;94334.00;5114061;28;1875;-54
2023/08/29 08:06:45;;;;;;;;;;;;;;;27.15;60.43;94336.94;5113919;28;1979;-55
2023/08/29 08:09:12;;;;;;;;;;;;;;;27.10;59.58;94334.25;5102204;27;3090;-55
2023/08/29 08:11:38;;;;;;;;;;;;;;;26.96;61.83;94325.81;5155257;27;1075;-54
2023/08/29 08:14:04;;;;;;;;;;;;;;;26.84;62.14;94328.91;5155659;27;1248;-55
2023/08/29 08:16:30;;;;;;;;;;;;;;;26.87;62.49;94326.41;5155350;27;1040;-55
2023/08/29 08:18:56;;;;;;;;;;;;;;;26.91;63.20;94334.91;5135773;27;2463;-55
2023/08/29 08:21:22;;;;;;;;;;;;;;;26.98;62.48;94329.94;5134468;27;1185;-55
2023/08/29 08:23:48;;;;;;;;;;;;;;;26.96;61.09;94326.66;5134508;27;1042;-55
2023/08/29 08:26:15;;;;;;;;;;;;;;;27.01;62.15;94337.56;5134238;28;1984;-55
2023/08/29 08:28:41;;;;;;;;;;;;;;;27.02;61.39;94331.00;5134416;28;1106;-54
2023/08/29 08:31:06;;;;;;;;;;;;;;;27.01;63.06;94334.81;5133181;27;2524;-54
2023/08/29 08:33:32;;;;;;;;;;;;;;;26.95;60.31;94333.22;5134419;28;980;-55
2023/08/29 08:35:58;;;;;;;;;;;;;;;27.04;61.60;94334.28;5131121;28;1441;-55
2023/08/29 08:38:24;;;;;;;;;;;;;;;27.24;61.21;94333.31;5134258;28;1096;-55
2023/08/29 08:40:54;;;;;;;;;;;;;;;27.33;61.59;94332.72;5134476;28;980;-54
2023/08/29 08:43:21;;;;;;;;;;;;;;;27.25;62.59;94334.16;5134413;28;1051;-55
2023/08/29 08:45:47;;;;;;;;;;;;;;;27.30;59.57;94336.88;5134308;28;1913;-55
2023/08/29 08:48:14;;;;;;;;;;;;;;;27.37;58.02;94337.34;5134196;28;1092;-55
2023/08/29 08:50:41;;;;;;;;;;;;;;;27.35;60.39;94334.06;5134305;28;1075;-54
2023/08/29 08:53:09;;;;;;;;;;;;;;;27.35;60.55;94331.31;5134435;28;1023;-54
2023/08/29 08:55:35;;;;;;;;;;;;;;;27.36;60.88;94330.25;5134114;28;1247;-55
2023/08/29 08:58:01;;;;;;;;;;;;;;;27.35;61.59;94334.06;5134061;28;1143;-55
2023/08/29 09:00:27;;;;;;;;;;;;;;;27.35;59.16;94327.78;5134241;28;988;-55
2023/08/29 09:02:53;;;;;;;;;;;;;;;27.45;55.73;94311.22;5134399;28;1028;-55
2023/08/29 09:05:20;;;;;;;;;;;;;;;27.53;51.35;94309.81;5129280;28;1981;-55
2023/08/29 09:07:46;;;;;;;;;;;;;;;27.62;51.25;94310.78;5113533;28;1235;-54
2023/08/29 09:10:15;;;;;;;;;;;;;;;27.72;49.35;94323.63;5113634;28;969;-55
2023/08/29 09:12:51;;;;;;;;;;;;;;;27.79;51.08;94322.19;5113394;28;1107;-55
2023/08/29 09:15:18;;;;;;;;;;;;;;;27.80;50.09;94321.06;5113511;28;965;-55
2023/08/29 09:17:48;;;;;;;;;;;;;;;27.81;50.04;94311.72;5113189;28;1192;-55
2023/08/29 09:20:15;;;;;;;;;;;;;;;27.83;50.46;94312.25;5115384;28;1119;-54
2023/08/29 09:22:42;;;;;;;;;;;;;;;27.89;48.87;94314.94;5097998;28;1862;-55
2023/08/29 09:25:09;;;;;;;;;;;;;;;28.00;47.24;94306.34;5096702;28;1049;-55
2023/08/29 09:27:42;;;;;;;;;;;;;;;27.89;47.51;94299.31;5115385;27;2973;-55
2023/08/29 09:30:12;;;;;;;;;;;;;;;28.04;47.26;94301.09;5116113;28;2770;-54
2023/08/29 09:32:40;;;;;;;;;;;;;;;28.18;48.15;94291.00;5117013;28;1029;-55
2023/08/29 09:35:06;;;;;;;;;;;;;;;28.38;47.86;94298.19;5116927;28;1028;-56
2023/08/29 09:37:33;;;;;;;;;;;;;;;28.48;47.74;94299.19;5105863;28;1032;-57
2023/08/29 09:40:00;;;;;;;;;;;;;;;28.49;47.14;94301.63;5096677;28;1158;-56
2023/08/29 09:42:29;;;;;;;;;;;;;;;28.55;48.25;94292.25;5096279;28;1091;-56
2023/08/29 09:44:55;;;;;;;;;;;;;;;28.58;48.56;94288.88;5096380;28;1017;-57
2023/08/29 09:47:26;;;;;;;;;;;;;;;28.55;47.71;94283.16;5095907;28;1906;-57
2023/08/29 09:49:52;;;;;;;;;;;;;;;28.56;48.32;94273.81;5096276;28;1055;-58
2023/08/29 09:52:18;;;;;;;;;;;;;;;28.50;46.44;94267.53;5096175;28;1028;-58
2023/08/29 09:54:47;;;;;;;;;;;;;;;28.52;45.57;94268.09;5095763;28;1028;-58
2023/08/29 09:57:14;;;;;;;;;;;;;;;28.58;47.21;94272.38;5095605;28;1099;-58
2023/08/29 09:59:41;;;;;;;;;;;;;;;28.65;47.11;94271.19;5096217;28;966;-58
2023/08/29 10:02:08;;;;;;;;;;;;;;;28.56;46.60;94269.13;5095674;28;1049;-58
2023/08/29 10:04:36;;;;;;;;;;;;;;;28.60;46.61;94267.41;5095913;28;970;-58
2023/08/29 10:07:02;;;;;;;;;;;;;;;28.64;47.71;94266.84;5114538;28;1964;-58
2023/08/29 10:09:30;;;;;;;;;;;;;;;28.71;47.83;94261.78;5116210;28;1321;-58
2023/08/29 10:11:56;;;;;;;;;;;;;;;28.75;46.55;94258.13;5116568;28;1032;-58
2023/08/29 10:14:22;;;;;;;;;;;;;;;28.77;47.70;94255.09;5116219;28;1007;-58
2023/08/29 10:16:49;;;;;;;;;;;;;;;28.88;47.42;94253.00;5116078;28;1048;-58
2023/08/29 10:19:15;;;;;;;;;;;;;;;28.96;47.61;94246.81;5115991;28;1036;-58
2023/08/29 10:21:42;;;;;;;;;;;;;;;29.13;50.96;94240.81;5119949;27;2606;-58
2023/08/29 10:24:10;;;;;;;;;;;;;;;29.17;46.22;94252.84;5136509;27;1094;-58
2023/08/29 10:26:37;;;;;;;;;;;;;;;29.36;46.64;94250.88;5136593;27;1913;-58
2023/08/29 10:29:04;;;;;;;;;;;;;;;29.48;47.71;94249.56;5136515;27;1081;-58
2023/08/29 10:31:31;;;;;;;;;;;;;;;29.48;47.30;94249.56;5132765;27;1332;-58
2023/08/29 10:33:57;;;;;;;;;;;;;;;29.46;45.79;94243.56;5116066;28;1044;-58
2023/08/29 10:36:24;;;;;;;;;;;;;;;29.37;46.60;94247.00;5115831;28;1056;-57
2023/08/29 10:38:50;;;;;;;;;;;;;;;29.44;46.99;94234.78;5115708;28;1039;-58
2023/08/29 10:41:16;;;;;;;;;;;;;;;29.48;46.27;94235.81;5115243;28;1031;-57
2023/08/29 10:43:42;;;;;;;;;;;;;;;29.43;46.48;94236.72;5115486;28;985;-58
2023/08/29 10:46:11;;;;;;;;;;;;;;;29.24;44.45;94244.22;5114769;28;1910;-57
2023/08/29 10:48:46;;;;;;;;;;;;;;;29.12;46.40;94237.22;5115802;28;1334;-57
2023/08/29 10:51:15;;;;;;;;;;;;;;;29.11;44.83;94237.53;5115295;28;1269;-57
2023/08/29 10:53:47;;;;;;;;;;;;;;;29.07;44.75;94240.03;5115287;28;1258;-57
2023/08/29 10:56:14;;;;;;;;;;;;;;;29.11;46.24;94227.31;5115417;28;1025;-57
2023/08/29 10:58:40;;;;;;;;;;;;;;;29.11;44.71;94234.75;5115530;28;1068;-58
2023/08/29 11:01:07;;;;;;;;;;;;;;;29.14;45.22;94234.19;5115623;28;988;-57
2023/08/29 11:03:39;;;;;;;;;;;;;;;29.32;45.15;94236.09;5115186;28;970;-57
2023/08/29 11:06:05;;;;;;;;;;;;;;;29.38;43.21;94236.81;5142157;27;2700;-56
2023/08/29 11:08:31;;;;;;;;;;;;;;;29.52;42.36;94236.84;5135692;27;1007;-57
2023/08/29 11:11:09;;;;;;;;;;;;;;;29.53;42.50;94246.75;5135620;27;1092;-57
2023/08/29 11:13:52;;;;;;;;;;;;;;;29.56;43.50;94243.41;5135504;27;1060;-56
2023/08/29 11:16:18;;;;;;;;;;;;;;;29.49;44.04;94242.97;5135688;27;1052;-57
2023/08/29 11:18:44;;;;;;;;;;;;;;;29.43;42.75;94247.75;5135561;27;961;-57
2023/08/29 11:21:11;;;;;;;;;;;;;;;29.37;43.37;94251.72;5110604;28;1219;-57
2023/08/29 11:23:38;;;;;;;;;;;;;;;29.23;44.53;94242.56;5115124;28;965;-57
2023/08/29 11:26:05;;;;;;;;;;;;;;;29.12;44.45;94239.13;5114968;28;1914;-57
2023/08/29 11:28:33;;;;;;;;;;;;;;;29.05;44.43;94242.28;5114882;28;1060;-57
2023/08/29 11:30:59;;;;;;;;;;;;;;;29.03;45.07;94236.25;5121482;27;2896;-56
2023/08/29 11:33:32;;;;;;;;;;;;;;;29.30;44.29;94240.25;5134172;27;2816;-57
2023/08/29 11:35:59;;;;;;;;;;;;;;;29.59;43.67;94240.84;5133896;27;2496;-56
2023/08/29 11:38:26;;;;;;;;;;;;;;;29.73;43.39;94240.91;5116400;27;1573;-56
2023/08/29 11:40:52;;;;;;;;;;;;;;;29.72;44.05;94241.97;5114736;28;1193;-56
2023/08/29 11:43:18;;;;;;;;;;;;;;;29.85;47.06;94236.84;5139687;27;2839;-57
2023/08/29 11:45:44;;;;;;;;;;;;;;;29.99;45.39;94243.16;5155926;27;1992;-57
2023/08/29 11:48:10;;;;;;;;;;;;;;;29.97;43.84;94237.13;5154712;27;1296;-57
2023/08/29 11:50:39;;;;;;;;;;;;;;;30.05;42.73;94233.69;5134895;27;1032;-56
2023/08/29 11:53:05;;;;;;;;;;;;;;;30.14;42.55;94220.78;5133006;27;2468;-57
2023/08/29 11:55:31;;;;;;;;;;;;;;;30.23;41.61;94226.41;5116784;27;1152;-56
2023/08/29 11:57:58;;;;;;;;;;;;;;;30.23;42.32;94220.09;5134769;27;1043;-57
2023/08/29 12:00:24;;;;;;;;;;;;;;;30.04;40.33;94220.19;5115132;27;1216;-57
2023/08/29 12:02:50;;;;;;;;;;;;;;;29.97;41.70;94215.09;5114233;28;1048;-57
2023/08/29 12:05:20;;;;;;;;;;;;;;;30.00;41.02;94211.72;5113951;28;1322;-57
2023/08/29 12:07:49;;;;;;;;;;;;;;;29.93;41.82;94214.88;5096080;28;1041;-57
2023/08/29 12:10:16;;;;;;;;;;;;;;;29.90;43.32;94198.97;5131548;27;1085;-57
2023/08/29 12:12:43;;;;;;;;;;;;;;;29.61;41.41;94203.91;5134550;27;1051;-56
2023/08/29 12:15:14;;;;;;;;;;;;;;;29.52;41.81;94199.13;5134777;27;974;-57
2023/08/29 12:17:41;;;;;;;;;;;;;;;29.47;41.30;94203.91;5134484;27;1032;-57
2023/08/29 12:20:10;;;;;;;;;;;;;;;29.39;42.12;94200.72;5115982;28;1026;-57
2023/08/29 12:22:38;;;;;;;;;;;;;;;29.38;42.94;94210.09;5097551;28;1150;-57
2023/08/29 12:25:09;;;;;;;;;;;;;;;29.26;42.77;94198.75;5113756;28;1040;-58
2023/08/29 12:27:35;;;;;;;;;;;;;;;29.31;44.06;94204.19;5113981;28;1979;-57
2023/08/29 12:30:01;;;;;;;;;;;;;;;29.71;42.53;94211.97;5113527;28;1048;-57
2023/08/29 12:32:28;;;;;;;;;;;;;;;30.00;43.89;94203.47;5113983;28;945;-57
2023/08/29 12:34:58;;;;;;;;;;;;;;;30.10;40.81;94208.75;5113694;28;1079;-58
2023/08/29 12:37:24;;;;;;;;;;;;;;;30.25;39.98;94207.63;5113615;28;1040;-57
2023/08/29 12:39:50;;;;;;;;;;;;;;;30.30;40.89;94212.22;5113655;28;1036;-57
2023/08/29 12:42:17;;;;;;;;;;;;;;;30.21;40.29;94201.09;5113795;28;985;-58
2023/08/29 12:44:43;;;;;;;;;;;;;;;30.26;40.84;94191.88;5113811;28;1019;-58
2023/08/29 12:47:09;;;;;;;;;;;;;;;30.19;40.90;94197.84;5127944;27;2545;-57
2023/08/29 12:49:35;;;;;;;;;;;;;;;30.11;41.47;94190.31;5143734;27;1070;-59
2023/08/29 12:52:02;;;;;;;;;;;;;;;30.21;40.88;94198.34;5134103;28;1051;-58
2023/08/29 12:54:30;;;;;;;;;;;;;;;30.15;39.48;94203.13;5134941;27;1020;-58
2023/08/29 12:56:56;;;;;;;;;;;;;;;30.06;39.59;94207.75;5138209;27;1040;-58